sensor_id;sensor_type;location;lat;lon;timestamp;temperature;humidity
5520;DHT22;2782;52.362;10.012;2024-02-23T00:00:51;20.10;71.10
5520;DHT22;2782;52.362;10.012;2024-02-23T00:01:54;20.10;71.90
5520;DHT22;2782;52.362;10.012;2024-02-23T00:02:55;20.10;72.10
5520;DHT22;2782;52.362;10.012;2024-02-23T00:03:58;20.00;72.60
5520;DHT22;2782;52.362;10.012;2024-02-23T00:04:58;20.00;73.50
5520;DHT22;2782;52.362;10.012;2024-02-23T00:06:00;20.00;74.70
5520;DHT22;2782;52.362;10.012;2024-02-23T00:07:01;20.00;74.90
5520;DHT22;2782;52.362;10.012;2024-02-23T00:08:03;20.00;74.90
5520;DHT22;2782;52.362;10.012;2024-02-23T00:09:04;20.00;76.30
5520;DHT22;2782;52.362;10.012;2024-02-23T00:10:06;20.00;76.70
5520;DHT22;2782;52.362;10.012;2024-02-23T00:11:08;20.00;77.00
5520;DHT22;2782;52.362;10.012;2024-02-23T00:12:08;20.00;77.40
5520;DHT22;2782;52.362;10.012;2024-02-23T00:13:09;20.00;77.60
5520;DHT22;2782;52.362;10.012;2024-02-23T00:14:11;20.00;78.00
5520;DHT22;2782;52.362;10.012;2024-02-23T00:15:12;20.00;78.30
5520;DHT22;2782;52.362;10.012;2024-02-23T00:16:13;20.00;78.60
5520;DHT22;2782;52.362;10.012;2024-02-23T00:17:15;20.00;78.50
5520;DHT22;2782;52.362;10.012;2024-02-23T00:18:17;20.00;78.50
5520;DHT22;2782;52.362;10.012;2024-02-23T00:19:18;20.00;78.30
5520;DHT22;2782;52.362;10.012;2024-02-23T00:20:20;20.00;78.50
5520;DHT22;2782;52.362;10.012;2024-02-23T00:21:21;20.00;78.70
5520;DHT22;2782;52.362;10.012;2024-02-23T00:22:22;20.00;78.70
5520;DHT22;2782;52.362;10.012;2024-02-23T00:23:26;20.00;78.80
5520;DHT22;2782;52.362;10.012;2024-02-23T00:24:26;20.00;78.70
5520;DHT22;2782;52.362;10.012;2024-02-23T00:25:28;20.00;78.50
5520;DHT22;2782;52.362;10.012;2024-02-23T00:26:28;19.90;78.50
5520;DHT22;2782;52.362;10.012;2024-02-23T00:27:30;20.00;78.60
5520;DHT22;2782;52.362;10.012;2024-02-23T00:28:31;20.00;78.50
5520;DHT22;2782;52.362;10.012;2024-02-23T00:29:32;19.90;78.30
5520;DHT22;2782;52.362;10.012;2024-02-23T00:30:34;20.00;78.50
5520;DHT22;2782;52.362;10.012;2024-02-23T00:31:34;19.90;78.20
5520;DHT22;2782;52.362;10.012;2024-02-23T00:32:37;19.90;78.30
5520;DHT22;2782;52.362;10.012;2024-02-23T00:33:38;19.90;78.20
5520;DHT22;2782;52.362;10.012;2024-02-23T00:34:42;19.90;78.20
5520;DHT22;2782;52.362;10.012;2024-02-23T00:35:43;19.90;78.00
5520;DHT22;2782;52.362;10.012;2024-02-23T00:36:44;19.90;78.00
5520;DHT22;2782;52.362;10.012;2024-02-23T00:37:45;19.90;78.00
5520;DHT22;2782;52.362;10.012;2024-02-23T00:38:46;19.90;77.80
5520;DHT22;2782;52.362;10.012;2024-02-23T00:39:48;19.90;77.90
5520;DHT22;2782;52.362;10.012;2024-02-23T00:40:49;19.90;78.00
5520;DHT22;2782;52.362;10.012;2024-02-23T00:41:51;19.90;78.00
5520;DHT22;2782;52.362;10.012;2024-02-23T00:42:51;19.90;77.80
5520;DHT22;2782;52.362;10.012;2024-02-23T00:43:53;19.90;77.70
5520;DHT22;2782;52.362;10.012;2024-02-23T00:44:54;19.90;77.70
5520;DHT22;2782;52.362;10.012;2024-02-23T00:45:55;19.90;77.70
5520;DHT22;2782;52.362;10.012;2024-02-23T00:46:56;19.90;77.70
5520;DHT22;2782;52.362;10.012;2024-02-23T00:48:00;19.90;77.60
5520;DHT22;2782;52.362;10.012;2024-02-23T00:49:00;19.90;77.60
5520;DHT22;2782;52.362;10.012;2024-02-23T00:50:01;19.80;77.30
5520;DHT22;2782;52.362;10.012;2024-02-23T00:51:03;19.80;77.20
5520;DHT22;2782;52.362;10.012;2024-02-23T00:52:04;19.80;77.10
5520;DHT22;2782;52.362;10.012;2024-02-23T00:53:06;19.80;77.10
5520;DHT22;2782;52.362;10.012;2024-02-23T00:54:07;19.80;77.10
5520;DHT22;2782;52.362;10.012;2024-02-23T00:55:09;19.80;77.10
5520;DHT22;2782;52.362;10.012;2024-02-23T00:56:09;19.80;77.00
5520;DHT22;2782;52.362;10.012;2024-02-23T00:57:11;19.80;77.00
5520;DHT22;2782;52.362;10.012;2024-02-23T00:58:12;19.80;76.90
5520;DHT22;2782;52.362;10.012;2024-02-23T00:59:13;19.80;76.90
5520;DHT22;2782;52.362;10.012;2024-02-23T01:00:14;19.80;76.90
5520;DHT22;2782;52.362;10.012;2024-02-23T01:01:16;19.80;76.80
5520;DHT22;2782;52.362;10.012;2024-02-23T01:02:17;19.80;76.70
5520;DHT22;2782;52.362;10.012;2024-02-23T01:03:19;19.80;76.60
5520;DHT22;2782;52.362;10.012;2024-02-23T01:04:20;19.80;76.50
5520;DHT22;2782;52.362;10.012;2024-02-23T01:05:22;19.80;76.50
5520;DHT22;2782;52.362;10.012;2024-02-23T01:06:23;19.70;76.30
5520;DHT22;2782;52.362;10.012;2024-02-23T01:07:26;19.70;76.10
5520;DHT22;2782;52.362;10.012;2024-02-23T01:08:28;19.70;76.10
5520;DHT22;2782;52.362;10.012;2024-02-23T01:09:28;19.70;76.10
5520;DHT22;2782;52.362;10.012;2024-02-23T01:10:30;19.70;75.80
5520;DHT22;2782;52.362;10.012;2024-02-23T01:11:30;19.70;75.80
5520;DHT22;2782;52.362;10.012;2024-02-23T01:12:31;19.70;75.90
5520;DHT22;2782;52.362;10.012;2024-02-23T01:13:33;19.70;75.80
5520;DHT22;2782;52.362;10.012;2024-02-23T01:14:33;19.70;75.80
5520;DHT22;2782;52.362;10.012;2024-02-23T01:15:35;19.70;75.80
5520;DHT22;2782;52.362;10.012;2024-02-23T01:16:35;19.70;75.70
5520;DHT22;2782;52.362;10.012;2024-02-23T01:17:37;19.70;75.70
5520;DHT22;2782;52.362;10.012;2024-02-23T01:18:40;19.70;75.70
5520;DHT22;2782;52.362;10.012;2024-02-23T01:19:43;19.70;75.70
5520;DHT22;2782;52.362;10.012;2024-02-23T01:20:43;19.70;75.70
5520;DHT22;2782;52.362;10.012;2024-02-23T01:21:45;19.70;75.70
5520;DHT22;2782;52.362;10.012;2024-02-23T01:22:46;19.70;75.70
5520;DHT22;2782;52.362;10.012;2024-02-23T01:23:46;19.60;75.50
5520;DHT22;2782;52.362;10.012;2024-02-23T01:24:48;19.60;75.50
5520;DHT22;2782;52.362;10.012;2024-02-23T01:25:49;19.70;75.60
5520;DHT22;2782;52.362;10.012;2024-02-23T01:26:50;19.60;75.50
5520;DHT22;2782;52.362;10.012;2024-02-23T01:27:51;19.60;75.40
5520;DHT22;2782;52.362;10.012;2024-02-23T01:28:52;19.60;75.30
5520;DHT22;2782;52.362;10.012;2024-02-23T01:29:53;19.60;75.30
5520;DHT22;2782;52.362;10.012;2024-02-23T01:30:55;19.60;75.30
5520;DHT22;2782;52.362;10.012;2024-02-23T01:31:56;19.60;75.20
5520;DHT22;2782;52.362;10.012;2024-02-23T01:32:57;19.60;75.20
5520;DHT22;2782;52.362;10.012;2024-02-23T01:33:59;19.60;75.20
5520;DHT22;2782;52.362;10.012;2024-02-23T01:35:01;19.60;75.10
5520;DHT22;2782;52.362;10.012;2024-02-23T01:36:02;19.60;75.10
5520;DHT22;2782;52.362;10.012;2024-02-23T01:37:03;19.60;75.10
5520;DHT22;2782;52.362;10.012;2024-02-23T01:38:04;19.60;75.10
5520;DHT22;2782;52.362;10.012;2024-02-23T01:39:06;19.60;75.10
5520;DHT22;2782;52.362;10.012;2024-02-23T01:40:08;19.60;75.00
5520;DHT22;2782;52.362;10.012;2024-02-23T01:41:09;19.60;74.90
5520;DHT22;2782;52.362;10.012;2024-02-23T01:42:12;19.60;74.80
5520;DHT22;2782;52.362;10.012;2024-02-23T01:43:14;19.60;74.80
5520;DHT22;2782;52.362;10.012;2024-02-23T01:44:14;19.60;74.70
5520;DHT22;2782;52.362;10.012;2024-02-23T01:45:17;19.60;74.70
5520;DHT22;2782;52.362;10.012;2024-02-23T01:46:18;19.60;74.60
5520;DHT22;2782;52.362;10.012;2024-02-23T01:47:20;19.60;74.50
5520;DHT22;2782;52.362;10.012;2024-02-23T01:48:21;19.60;74.50
5520;DHT22;2782;52.362;10.012;2024-02-23T01:49:25;19.60;74.40
5520;DHT22;2782;52.362;10.012;2024-02-23T01:50:30;19.60;74.30
5520;DHT22;2782;52.362;10.012;2024-02-23T01:51:31;19.60;74.20
5520;DHT22;2782;52.362;10.012;2024-02-23T01:52:34;19.60;74.10
5520;DHT22;2782;52.362;10.012;2024-02-23T01:53:35;19.60;74.10
5520;DHT22;2782;52.362;10.012;2024-02-23T01:54:37;19.60;74.00
5520;DHT22;2782;52.362;10.012;2024-02-23T01:55:39;19.60;74.00
5520;DHT22;2782;52.362;10.012;2024-02-23T01:56:42;19.60;73.90
5520;DHT22;2782;52.362;10.012;2024-02-23T01:57:43;19.60;73.80
5520;DHT22;2782;52.362;10.012;2024-02-23T01:58:46;19.60;73.80
5520;DHT22;2782;52.362;10.012;2024-02-23T01:59:47;19.60;73.70
5520;DHT22;2782;52.362;10.012;2024-02-23T02:00:49;19.60;73.60
5520;DHT22;2782;52.362;10.012;2024-02-23T02:01:50;19.60;73.60
5520;DHT22;2782;52.362;10.012;2024-02-23T02:02:51;19.60;73.50
5520;DHT22;2782;52.362;10.012;2024-02-23T02:03:52;19.60;73.50
5520;DHT22;2782;52.362;10.012;2024-02-23T02:04:54;19.60;73.50
5520;DHT22;2782;52.362;10.012;2024-02-23T02:05:57;19.60;73.40
5520;DHT22;2782;52.362;10.012;2024-02-23T02:06:59;19.60;73.30
5520;DHT22;2782;52.362;10.012;2024-02-23T02:08:01;19.60;73.30
5520;DHT22;2782;52.362;10.012;2024-02-23T02:09:02;19.60;73.20
5520;DHT22;2782;52.362;10.012;2024-02-23T02:10:06;19.60;73.10
5520;DHT22;2782;52.362;10.012;2024-02-23T02:11:07;19.60;73.10
5520;DHT22;2782;52.362;10.012;2024-02-23T02:12:09;19.60;73.10
5520;DHT22;2782;52.362;10.012;2024-02-23T02:13:09;19.60;73.00
5520;DHT22;2782;52.362;10.012;2024-02-23T02:14:11;19.60;73.00
5520;DHT22;2782;52.362;10.012;2024-02-23T02:15:12;19.60;73.00
5520;DHT22;2782;52.362;10.012;2024-02-23T02:16:13;19.60;72.90
5520;DHT22;2782;52.362;10.012;2024-02-23T02:17:14;19.60;72.90
5520;DHT22;2782;52.362;10.012;2024-02-23T02:18:15;19.60;72.70
5520;DHT22;2782;52.362;10.012;2024-02-23T02:19:16;19.60;72.70
5520;DHT22;2782;52.362;10.012;2024-02-23T02:20:18;19.60;72.60
5520;DHT22;2782;52.362;10.012;2024-02-23T02:21:24;19.60;72.60
5520;DHT22;2782;52.362;10.012;2024-02-23T02:22:25;19.60;72.50
5520;DHT22;2782;52.362;10.012;2024-02-23T02:23:27;19.60;72.50
5520;DHT22;2782;52.362;10.012;2024-02-23T02:24:28;19.60;72.40
5520;DHT22;2782;52.362;10.012;2024-02-23T02:25:29;19.60;72.40
5520;DHT22;2782;52.362;10.012;2024-02-23T02:26:30;19.60;72.30
5520;DHT22;2782;52.362;10.012;2024-02-23T02:27:31;19.60;72.30
5520;DHT22;2782;52.362;10.012;2024-02-23T02:28:32;19.60;72.30
5520;DHT22;2782;52.362;10.012;2024-02-23T02:29:35;19.60;72.20
5520;DHT22;2782;52.362;10.012;2024-02-23T02:30:36;19.60;72.10
5520;DHT22;2782;52.362;10.012;2024-02-23T02:31:36;19.60;72.10
5520;DHT22;2782;52.362;10.012;2024-02-23T02:32:38;19.60;72.10
5520;DHT22;2782;52.362;10.012;2024-02-23T02:33:39;19.60;72.10
5520;DHT22;2782;52.362;10.012;2024-02-23T02:34:41;19.60;72.10
5520;DHT22;2782;52.362;10.012;2024-02-23T02:35:43;19.60;72.10
5520;DHT22;2782;52.362;10.012;2024-02-23T02:36:45;19.60;72.10
5520;DHT22;2782;52.362;10.012;2024-02-23T02:37:45;19.60;72.20
5520;DHT22;2782;52.362;10.012;2024-02-23T02:38:48;19.60;72.00
5520;DHT22;2782;52.362;10.012;2024-02-23T02:39:49;19.60;72.10
5520;DHT22;2782;52.362;10.012;2024-02-23T02:40:49;19.60;72.00
5520;DHT22;2782;52.362;10.012;2024-02-23T02:41:51;19.60;72.00
5520;DHT22;2782;52.362;10.012;2024-02-23T02:42:51;19.60;72.00
5520;DHT22;2782;52.362;10.012;2024-02-23T02:43:52;19.60;72.10
5520;DHT22;2782;52.362;10.012;2024-02-23T02:44:54;19.60;72.10
5520;DHT22;2782;52.362;10.012;2024-02-23T02:45:54;19.60;72.10
5520;DHT22;2782;52.362;10.012;2024-02-23T02:46:56;19.60;72.00
5520;DHT22;2782;52.362;10.012;2024-02-23T02:47:57;19.60;72.10
5520;DHT22;2782;52.362;10.012;2024-02-23T02:48:58;19.50;72.00
5520;DHT22;2782;52.362;10.012;2024-02-23T02:49:59;19.50;71.90
5520;DHT22;2782;52.362;10.012;2024-02-23T02:51:02;19.50;71.90
5520;DHT22;2782;52.362;10.012;2024-02-23T02:52:03;19.60;72.00
5520;DHT22;2782;52.362;10.012;2024-02-23T02:53:05;19.50;71.90
5520;DHT22;2782;52.362;10.012;2024-02-23T02:54:06;19.50;71.90
5520;DHT22;2782;52.362;10.012;2024-02-23T02:55:08;19.50;71.90
5520;DHT22;2782;52.362;10.012;2024-02-23T02:56:09;19.50;71.80
5520;DHT22;2782;52.362;10.012;2024-02-23T02:57:10;19.50;71.80
5520;DHT22;2782;52.362;10.012;2024-02-23T02:58:11;19.50;71.80
5520;DHT22;2782;52.362;10.012;2024-02-23T02:59:13;19.50;71.70
5520;DHT22;2782;52.362;10.012;2024-02-23T03:00:14;19.50;71.70
5520;DHT22;2782;52.362;10.012;2024-02-23T03:01:15;19.50;71.70
5520;DHT22;2782;52.362;10.012;2024-02-23T03:02:16;19.50;71.70
5520;DHT22;2782;52.362;10.012;2024-02-23T03:03:17;19.50;71.70
5520;DHT22;2782;52.362;10.012;2024-02-23T03:04:18;19.50;71.60
5520;DHT22;2782;52.362;10.012;2024-02-23T03:05:19;19.50;71.60
5520;DHT22;2782;52.362;10.012;2024-02-23T03:06:22;19.50;71.60
5520;DHT22;2782;52.362;10.012;2024-02-23T03:07:23;19.50;71.60
5520;DHT22;2782;52.362;10.012;2024-02-23T03:08:24;19.50;71.60
5520;DHT22;2782;52.362;10.012;2024-02-23T03:09:25;19.50;71.60
5520;DHT22;2782;52.362;10.012;2024-02-23T03:10:27;19.50;71.60
5520;DHT22;2782;52.362;10.012;2024-02-23T03:11:27;19.40;71.50
5520;DHT22;2782;52.362;10.012;2024-02-23T03:12:29;19.40;71.50
5520;DHT22;2782;52.362;10.012;2024-02-23T03:13:29;19.40;71.50
5520;DHT22;2782;52.362;10.012;2024-02-23T03:14:32;19.40;71.50
5520;DHT22;2782;52.362;10.012;2024-02-23T03:15:34;19.40;71.40
5520;DHT22;2782;52.362;10.012;2024-02-23T03:16:34;19.40;71.40
5520;DHT22;2782;52.362;10.012;2024-02-23T03:17:37;19.40;71.50
5520;DHT22;2782;52.362;10.012;2024-02-23T03:18:38;19.40;71.50
5520;DHT22;2782;52.362;10.012;2024-02-23T03:19:40;19.40;71.50
5520;DHT22;2782;52.362;10.012;2024-02-23T03:20:40;19.40;71.30
5520;DHT22;2782;52.362;10.012;2024-02-23T03:21:44;19.40;71.50
5520;DHT22;2782;52.362;10.012;2024-02-23T03:22:44;19.40;71.50
5520;DHT22;2782;52.362;10.012;2024-02-23T03:23:46;19.40;71.40
5520;DHT22;2782;52.362;10.012;2024-02-23T03:24:46;19.40;71.40
5520;DHT22;2782;52.362;10.012;2024-02-23T03:25:47;19.40;71.50
5520;DHT22;2782;52.362;10.012;2024-02-23T03:26:49;19.40;71.50
5520;DHT22;2782;52.362;10.012;2024-02-23T03:27:49;19.40;71.40
5520;DHT22;2782;52.362;10.012;2024-02-23T03:28:51;19.40;71.40
5520;DHT22;2782;52.362;10.012;2024-02-23T03:29:51;19.40;71.30
5520;DHT22;2782;52.362;10.012;2024-02-23T03:30:53;19.40;71.30
5520;DHT22;2782;52.362;10.012;2024-02-23T03:31:54;19.40;71.20
5520;DHT22;2782;52.362;10.012;2024-02-23T03:32:55;19.30;71.10
5520;DHT22;2782;52.362;10.012;2024-02-23T03:33:56;19.40;71.30
5520;DHT22;2782;52.362;10.012;2024-02-23T03:34:57;19.30;71.20
5520;DHT22;2782;52.362;10.012;2024-02-23T03:35:58;19.30;71.10
5520;DHT22;2782;52.362;10.012;2024-02-23T03:37:01;19.30;71.10
5520;DHT22;2782;52.362;10.012;2024-02-23T03:38:03;19.30;71.10
5520;DHT22;2782;52.362;10.012;2024-02-23T03:39:04;19.30;71.80
5520;DHT22;2782;52.362;10.012;2024-02-23T03:40:07;19.30;71.10
5520;DHT22;2782;52.362;10.012;2024-02-23T03:41:10;19.30;71.10
5520;DHT22;2782;52.362;10.012;2024-02-23T03:42:11;19.30;71.10
5520;DHT22;2782;52.362;10.012;2024-02-23T03:43:12;19.30;71.10
5520;DHT22;2782;52.362;10.012;2024-02-23T03:44:13;19.30;71.10
5520;DHT22;2782;52.362;10.012;2024-02-23T03:45:15;19.30;71.10
5520;DHT22;2782;52.362;10.012;2024-02-23T03:46:15;19.30;71.10
5520;DHT22;2782;52.362;10.012;2024-02-23T03:47:18;19.30;71.10
5520;DHT22;2782;52.362;10.012;2024-02-23T03:48:18;19.30;71.10
5520;DHT22;2782;52.362;10.012;2024-02-23T03:49:20;19.30;71.00
5520;DHT22;2782;52.362;10.012;2024-02-23T03:50:20;19.30;71.00
5520;DHT22;2782;52.362;10.012;2024-02-23T03:51:22;19.30;71.00
5520;DHT22;2782;52.362;10.012;2024-02-23T03:52:24;19.20;71.00
5520;DHT22;2782;52.362;10.012;2024-02-23T03:53:26;19.20;71.70
5520;DHT22;2782;52.362;10.012;2024-02-23T03:54:26;19.20;71.00
5520;DHT22;2782;52.362;10.012;2024-02-23T03:55:28;19.20;71.00
5520;DHT22;2782;52.362;10.012;2024-02-23T03:56:29;19.20;70.90
5520;DHT22;2782;52.362;10.012;2024-02-23T03:57:31;19.20;71.00
5520;DHT22;2782;52.362;10.012;2024-02-23T03:58:32;19.20;71.00
5520;DHT22;2782;52.362;10.012;2024-02-23T03:59:36;19.20;71.00
5520;DHT22;2782;52.362;10.012;2024-02-23T04:00:36;19.20;71.00
5520;DHT22;2782;52.362;10.012;2024-02-23T04:01:38;19.20;71.00
5520;DHT22;2782;52.362;10.012;2024-02-23T04:02:39;19.20;71.00
5520;DHT22;2782;52.362;10.012;2024-02-23T04:03:41;19.20;71.00
5520;DHT22;2782;52.362;10.012;2024-02-23T04:04:41;19.20;71.00
5520;DHT22;2782;52.362;10.012;2024-02-23T04:05:43;19.20;71.00
5520;DHT22;2782;52.362;10.012;2024-02-23T04:06:44;19.20;71.00
5520;DHT22;2782;52.362;10.012;2024-02-23T04:07:47;19.20;71.10
5520;DHT22;2782;52.362;10.012;2024-02-23T04:08:47;19.20;71.00
5520;DHT22;2782;52.362;10.012;2024-02-23T04:09:49;19.20;71.00
5520;DHT22;2782;52.362;10.012;2024-02-23T04:10:52;19.20;71.00
5520;DHT22;2782;52.362;10.012;2024-02-23T04:11:54;19.20;71.00
5520;DHT22;2782;52.362;10.012;2024-02-23T04:12:54;19.20;71.00
5520;DHT22;2782;52.362;10.012;2024-02-23T04:13:56;19.10;70.90
5520;DHT22;2782;52.362;10.012;2024-02-23T04:14:57;19.20;71.00
5520;DHT22;2782;52.362;10.012;2024-02-23T04:16:00;19.10;70.80
5520;DHT22;2782;52.362;10.012;2024-02-23T04:17:01;19.10;70.80
5520;DHT22;2782;52.362;10.012;2024-02-23T04:18:03;19.10;70.70
5520;DHT22;2782;52.362;10.012;2024-02-23T04:19:04;19.10;70.80
5520;DHT22;2782;52.362;10.012;2024-02-23T04:20:07;19.10;70.70
5520;DHT22;2782;52.362;10.012;2024-02-23T04:21:09;19.10;70.80
5520;DHT22;2782;52.362;10.012;2024-02-23T04:22:11;19.10;70.70
5520;DHT22;2782;52.362;10.012;2024-02-23T04:23:13;19.10;70.70
5520;DHT22;2782;52.362;10.012;2024-02-23T04:24:15;19.10;70.80
5520;DHT22;2782;52.362;10.012;2024-02-23T04:25:15;19.10;70.70
5520;DHT22;2782;52.362;10.012;2024-02-23T04:26:17;19.10;70.80
5520;DHT22;2782;52.362;10.012;2024-02-23T04:27:18;19.10;70.80
5520;DHT22;2782;52.362;10.012;2024-02-23T04:28:19;19.10;70.70
5520;DHT22;2782;52.362;10.012;2024-02-23T04:29:20;19.10;71.40
5520;DHT22;2782;52.362;10.012;2024-02-23T04:30:21;19.10;70.60
5520;DHT22;2782;52.362;10.012;2024-02-23T04:31:22;19.10;70.70
5520;DHT22;2782;52.362;10.012;2024-02-23T04:32:24;19.10;70.60
5520;DHT22;2782;52.362;10.012;2024-02-23T04:33:24;19.10;70.60
5520;DHT22;2782;52.362;10.012;2024-02-23T04:34:26;19.10;70.60
5520;DHT22;2782;52.362;10.012;2024-02-23T04:35:26;19.10;70.60
5520;DHT22;2782;52.362;10.012;2024-02-23T04:36:28;19.20;70.60
5520;DHT22;2782;52.362;10.012;2024-02-23T04:37:29;19.10;70.50
5520;DHT22;2782;52.362;10.012;2024-02-23T04:38:32;19.10;70.60
5520;DHT22;2782;52.362;10.012;2024-02-23T04:39:34;19.10;70.50
5520;DHT22;2782;52.362;10.012;2024-02-23T04:40:35;19.10;70.50
5520;DHT22;2782;52.362;10.012;2024-02-23T04:41:37;19.10;70.40
5520;DHT22;2782;52.362;10.012;2024-02-23T04:42:37;19.10;70.30
5520;DHT22;2782;52.362;10.012;2024-02-23T04:43:39;19.10;70.30
5520;DHT22;2782;52.362;10.012;2024-02-23T04:44:41;19.10;70.30
5520;DHT22;2782;52.362;10.012;2024-02-23T04:45:42;19.10;70.30
5520;DHT22;2782;52.362;10.012;2024-02-23T04:46:43;19.10;70.30
5520;DHT22;2782;52.362;10.012;2024-02-23T04:47:45;19.10;70.20
5520;DHT22;2782;52.362;10.012;2024-02-23T04:48:47;19.10;70.20
5520;DHT22;2782;52.362;10.012;2024-02-23T04:49:48;19.10;70.20
5520;DHT22;2782;52.362;10.012;2024-02-23T04:50:50;19.10;70.20
5520;DHT22;2782;52.362;10.012;2024-02-23T04:51:50;19.10;70.20
5520;DHT22;2782;52.362;10.012;2024-02-23T04:52:52;19.10;70.20
5520;DHT22;2782;52.362;10.012;2024-02-23T04:53:54;19.20;70.20
5520;DHT22;2782;52.362;10.012;2024-02-23T04:54:55;19.10;70.10
5520;DHT22;2782;52.362;10.012;2024-02-23T04:55:56;19.10;70.10
5520;DHT22;2782;52.362;10.012;2024-02-23T04:56:57;19.10;70.10
5520;DHT22;2782;52.362;10.012;2024-02-23T04:57:58;19.10;70.10
5520;DHT22;2782;52.362;10.012;2024-02-23T04:59:00;19.10;70.10
5520;DHT22;2782;52.362;10.012;2024-02-23T05:00:00;19.10;70.10
5520;DHT22;2782;52.362;10.012;2024-02-23T05:01:02;19.10;70.00
5520;DHT22;2782;52.362;10.012;2024-02-23T05:02:04;19.10;70.00
5520;DHT22;2782;52.362;10.012;2024-02-23T05:03:06;19.10;70.00
5520;DHT22;2782;52.362;10.012;2024-02-23T05:04:06;19.10;70.00
5520;DHT22;2782;52.362;10.012;2024-02-23T05:05:08;19.10;70.00
5520;DHT22;2782;52.362;10.012;2024-02-23T05:06:09;19.10;70.00
5520;DHT22;2782;52.362;10.012;2024-02-23T05:07:10;19.10;70.00
5520;DHT22;2782;52.362;10.012;2024-02-23T05:08:11;19.10;70.00
5520;DHT22;2782;52.362;10.012;2024-02-23T05:09:14;19.10;70.00
5520;DHT22;2782;52.362;10.012;2024-02-23T05:10:15;19.10;70.00
5520;DHT22;2782;52.362;10.012;2024-02-23T05:11:17;19.10;69.90
5520;DHT22;2782;52.362;10.012;2024-02-23T05:12:18;19.10;69.90
5520;DHT22;2782;52.362;10.012;2024-02-23T05:13:19;19.10;70.00
5520;DHT22;2782;52.362;10.012;2024-02-23T05:14:25;19.10;69.90
5520;DHT22;2782;52.362;10.012;2024-02-23T05:15:28;19.10;70.00
5520;DHT22;2782;52.362;10.012;2024-02-23T05:16:28;19.10;69.80
5520;DHT22;2782;52.362;10.012;2024-02-23T05:17:30;19.10;69.80
5520;DHT22;2782;52.362;10.012;2024-02-23T05:18:31;19.10;69.80
5520;DHT22;2782;52.362;10.012;2024-02-23T05:19:32;19.10;69.90
5520;DHT22;2782;52.362;10.012;2024-02-23T05:20:33;19.10;69.90
5520;DHT22;2782;52.362;10.012;2024-02-23T05:21:34;19.10;69.90
5520;DHT22;2782;52.362;10.012;2024-02-23T05:22:35;19.10;69.80
5520;DHT22;2782;52.362;10.012;2024-02-23T05:23:37;19.10;69.70
5520;DHT22;2782;52.362;10.012;2024-02-23T05:24:39;19.10;69.70
5520;DHT22;2782;52.362;10.012;2024-02-23T05:25:40;19.00;69.70
5520;DHT22;2782;52.362;10.012;2024-02-23T05:26:41;19.10;69.80
5520;DHT22;2782;52.362;10.012;2024-02-23T05:27:42;19.10;69.80
5520;DHT22;2782;52.362;10.012;2024-02-23T05:28:43;19.10;69.80
5520;DHT22;2782;52.362;10.012;2024-02-23T05:29:45;19.10;69.90
5520;DHT22;2782;52.362;10.012;2024-02-23T05:30:45;19.10;69.90
5520;DHT22;2782;52.362;10.012;2024-02-23T05:31:48;19.00;69.80
5520;DHT22;2782;52.362;10.012;2024-02-23T05:32:50;19.00;69.80
5520;DHT22;2782;52.362;10.012;2024-02-23T05:33:51;19.00;69.70
5520;DHT22;2782;52.362;10.012;2024-02-23T05:34:52;19.00;69.70
5520;DHT22;2782;52.362;10.012;2024-02-23T05:35:54;19.00;69.70
5520;DHT22;2782;52.362;10.012;2024-02-23T05:36:56;19.10;69.80
5520;DHT22;2782;52.362;10.012;2024-02-23T05:37:56;19.00;69.70
5520;DHT22;2782;52.362;10.012;2024-02-23T05:38:59;19.00;69.70
5520;DHT22;2782;52.362;10.012;2024-02-23T05:40:01;19.00;69.70
5520;DHT22;2782;52.362;10.012;2024-02-23T05:41:04;19.00;69.70
5520;DHT22;2782;52.362;10.012;2024-02-23T05:42:05;19.00;69.70
5520;DHT22;2782;52.362;10.012;2024-02-23T05:43:07;19.00;69.70
5520;DHT22;2782;52.362;10.012;2024-02-23T05:44:08;19.00;69.70
5520;DHT22;2782;52.362;10.012;2024-02-23T05:45:10;19.00;69.70
5520;DHT22;2782;52.362;10.012;2024-02-23T05:46:11;19.00;69.70
5520;DHT22;2782;52.362;10.012;2024-02-23T05:47:12;19.00;69.70
5520;DHT22;2782;52.362;10.012;2024-02-23T05:48:14;19.00;69.60
5520;DHT22;2782;52.362;10.012;2024-02-23T05:49:14;19.00;69.60
5520;DHT22;2782;52.362;10.012;2024-02-23T05:50:16;19.00;69.50
5520;DHT22;2782;52.362;10.012;2024-02-23T05:51:17;19.00;69.50
5520;DHT22;2782;52.362;10.012;2024-02-23T05:52:18;19.00;69.50
5520;DHT22;2782;52.362;10.012;2024-02-23T05:53:19;19.00;69.50
5520;DHT22;2782;52.362;10.012;2024-02-23T05:54:21;19.00;69.40
5520;DHT22;2782;52.362;10.012;2024-02-23T05:55:23;18.90;69.20
5520;DHT22;2782;52.362;10.012;2024-02-23T05:56:24;18.90;69.30
5520;DHT22;2782;52.362;10.012;2024-02-23T05:57:25;18.90;69.30
5520;DHT22;2782;52.362;10.012;2024-02-23T05:58:27;18.90;69.30
5520;DHT22;2782;52.362;10.012;2024-02-23T05:59:27;18.90;69.40
5520;DHT22;2782;52.362;10.012;2024-02-23T06:00:29;18.90;69.40
5520;DHT22;2782;52.362;10.012;2024-02-23T06:01:31;18.90;69.40
5520;DHT22;2782;52.362;10.012;2024-02-23T06:02:33;18.90;69.40
5520;DHT22;2782;52.362;10.012;2024-02-23T06:03:33;18.90;69.30
5520;DHT22;2782;52.362;10.012;2024-02-23T06:04:35;18.90;69.40
5520;DHT22;2782;52.362;10.012;2024-02-23T06:05:36;18.90;69.40
5520;DHT22;2782;52.362;10.012;2024-02-23T06:06:41;18.90;69.40
5520;DHT22;2782;52.362;10.012;2024-02-23T06:07:41;18.90;69.40
5520;DHT22;2782;52.362;10.012;2024-02-23T06:08:43;18.90;69.30
5520;DHT22;2782;52.362;10.012;2024-02-23T06:09:44;18.90;69.30
5520;DHT22;2782;52.362;10.012;2024-02-23T06:10:47;18.90;69.20
5520;DHT22;2782;52.362;10.012;2024-02-23T06:11:48;18.90;69.00
5520;DHT22;2782;52.362;10.012;2024-02-23T06:12:49;18.90;69.10
5520;DHT22;2782;52.362;10.012;2024-02-23T06:13:50;18.90;69.10
5520;DHT22;2782;52.362;10.012;2024-02-23T06:14:52;18.90;69.20
5520;DHT22;2782;52.362;10.012;2024-02-23T06:15:53;18.90;69.10
5520;DHT22;2782;52.362;10.012;2024-02-23T06:16:54;18.90;69.00
5520;DHT22;2782;52.362;10.012;2024-02-23T06:17:56;18.90;69.00
5520;DHT22;2782;52.362;10.012;2024-02-23T06:18:57;18.90;69.10
5520;DHT22;2782;52.362;10.012;2024-02-23T06:19:59;18.90;69.20
5520;DHT22;2782;52.362;10.012;2024-02-23T06:21:00;18.90;69.60
5520;DHT22;2782;52.362;10.012;2024-02-23T06:22:01;18.90;69.90
5520;DHT22;2782;52.362;10.012;2024-02-23T06:23:02;18.90;70.10
5520;DHT22;2782;52.362;10.012;2024-02-23T06:24:03;18.90;70.50
5520;DHT22;2782;52.362;10.012;2024-02-23T06:25:05;18.90;70.70
5520;DHT22;2782;52.362;10.012;2024-02-23T06:26:07;18.90;70.90
5520;DHT22;2782;52.362;10.012;2024-02-23T06:27:09;18.90;71.20
5520;DHT22;2782;52.362;10.012;2024-02-23T06:28:09;18.90;71.30
5520;DHT22;2782;52.362;10.012;2024-02-23T06:29:11;18.90;71.30
5520;DHT22;2782;52.362;10.012;2024-02-23T06:30:13;18.90;71.50
5520;DHT22;2782;52.362;10.012;2024-02-23T06:31:15;18.90;71.70
5520;DHT22;2782;52.362;10.012;2024-02-23T06:32:15;19.00;71.90
5520;DHT22;2782;52.362;10.012;2024-02-23T06:33:16;19.00;72.30
5520;DHT22;2782;52.362;10.012;2024-02-23T06:34:18;19.00;72.20